createdAt,value
2024-04-07T00:00:08.287Z,96147.00
2024-04-07T00:01:08.325Z,96146.00
2024-04-07T00:02:08.400Z,96146.00
2024-04-07T00:03:08.454Z,96146.00
2024-04-07T00:04:08.539Z,96145.00
2024-04-07T00:05:08.560Z,96146.00
2024-04-07T00:06:08.634Z,96144.00
2024-04-07T00:07:08.678Z,96146.00
2024-04-07T00:08:08.731Z,96144.00
2024-04-07T00:09:08.760Z,96144.00
2024-04-07T00:10:08.803Z,96139.00
2024-04-07T00:11:08.858Z,96142.00
2024-04-07T00:12:08.916Z,96141.00
2024-04-07T00:13:08.946Z,96143.00
2024-04-07T00:14:09.056Z,96143.00
2024-04-07T00:15:09.047Z,96140.00
2024-04-07T00:16:09.110Z,96141.00
2024-04-07T00:17:09.205Z,96141.00
2024-04-07T00:18:09.171Z,96141.00
2024-04-07T00:19:09.253Z,96140.00
2024-04-07T00:20:09.294Z,96145.00
2024-04-07T00:21:09.328Z,96146.00
2024-04-07T00:22:09.388Z,96143.00
2024-04-07T00:23:09.438Z,96144.00
2024-04-07T00:24:09.533Z,96144.00
2024-04-07T00:25:09.575Z,96146.00
2024-04-07T00:26:09.614Z,96148.00
2024-04-07T00:27:09.682Z,96146.00
2024-04-07T00:28:09.736Z,96142.00
2024-04-07T00:29:09.787Z,96141.00
2024-04-07T00:30:09.848Z,96137.00
2024-04-07T00:31:09.894Z,96141.00
2024-04-07T00:32:09.944Z,96140.00
2024-04-07T00:33:10.011Z,96141.00
2024-04-07T00:34:10.054Z,96141.00
2024-04-07T00:35:10.129Z,96140.00
2024-04-07T00:36:10.164Z,96139.00
2024-04-07T00:37:10.237Z,96137.00
2024-04-07T00:38:10.310Z,96138.00
2024-04-07T00:39:10.365Z,96137.00
2024-04-07T00:40:10.425Z,96135.00
2024-04-07T00:41:10.468Z,96135.00
2024-04-07T00:42:10.539Z,96134.00
2024-04-07T00:43:10.591Z,96130.00
2024-04-07T00:44:10.661Z,96135.00
2024-04-07T00:45:10.706Z,96134.00
2024-04-07T00:46:10.774Z,96136.00
2024-04-07T00:47:10.830Z,96137.00
2024-04-07T00:48:10.890Z,96137.00
2024-04-07T00:49:10.929Z,96141.00
2024-04-07T00:50:11.516Z,96145.00
2024-04-07T00:51:11.004Z,96147.00
2024-04-07T00:52:11.091Z,96148.00
2024-04-07T00:53:11.106Z,96149.00
2024-04-07T00:54:11.156Z,96149.00
2024-04-07T00:55:11.204Z,96151.00
2024-04-07T00:56:11.252Z,96149.00
2024-04-07T00:57:11.287Z,96149.00
2024-04-07T00:58:12.011Z,96147.00
2024-04-07T00:59:11.374Z,96146.00
2024-04-07T01:00:11.443Z,96146.00
2024-04-07T01:01:11.482Z,96143.00
2024-04-07T01:02:11.571Z,96141.00
2024-04-07T01:03:11.603Z,96143.00
2024-04-07T01:04:11.670Z,96142.00
2024-04-07T01:05:11.719Z,96145.00
2024-04-07T01:06:11.790Z,96149.00
2024-04-07T01:07:16.871Z,96151.00
2024-04-07T01:08:11.843Z,96153.00
2024-04-07T01:09:11.848Z,96155.00
2024-04-07T01:10:11.859Z,96155.00
2024-04-07T01:11:11.856Z,96157.00
2024-04-07T01:12:11.879Z,96154.00
2024-04-07T01:13:11.844Z,96154.00
2024-04-07T01:14:11.876Z,96153.00
2024-04-07T01:15:11.920Z,96155.00
2024-04-07T01:16:11.992Z,96159.00
2024-04-07T01:17:12.070Z,96160.00
2024-04-07T01:18:12.116Z,96161.00
2024-04-07T01:19:12.185Z,96161.00
2024-04-07T01:20:12.263Z,96161.00
2024-04-07T01:21:12.328Z,96159.00
2024-04-07T01:22:12.382Z,96162.00
2024-04-07T01:23:12.419Z,96165.00
2024-04-07T01:24:12.507Z,96166.00
2024-04-07T01:25:12.532Z,96168.00
2024-04-07T01:26:12.582Z,96168.00
2024-04-07T01:27:12.663Z,96169.00
2024-04-07T01:28:12.692Z,96169.00
2024-04-07T01:29:12.735Z,96169.00
2024-04-07T01:30:12.814Z,96169.00
2024-04-07T01:31:12.871Z,96170.00
2024-04-07T01:32:12.937Z,96172.00
2024-04-07T01:33:12.994Z,96177.00
2024-04-07T01:34:13.065Z,96177.00
2024-04-07T01:35:13.145Z,96178.00
2024-04-07T01:36:13.215Z,96181.00
2024-04-07T01:37:13.277Z,96183.00
2024-04-07T01:38:13.332Z,96188.00
2024-04-07T01:39:13.409Z,96186.00
2024-04-07T01:40:13.479Z,96186.00
2024-04-07T01:41:13.531Z,96185.00
2024-04-07T01:42:13.626Z,96184.00
2024-04-07T01:43:13.674Z,96183.00
2024-04-07T01:44:13.743Z,96188.00
2024-04-07T01:45:13.781Z,96187.00
2024-04-07T01:46:13.844Z,96188.00
2024-04-07T01:47:23.950Z,96183.00
2024-04-07T01:48:13.903Z,96184.00
2024-04-07T01:49:13.912Z,96185.00
2024-04-07T01:50:13.926Z,96183.00
2024-04-07T01:51:13.906Z,96188.00
2024-04-07T01:52:13.912Z,96188.00
2024-04-07T01:53:13.913Z,96190.00
2024-04-07T01:54:13.919Z,96191.00
2024-04-07T01:55:13.929Z,96192.00
2024-04-07T01:56:13.912Z,96189.00
2024-04-07T01:57:13.911Z,96190.00
2024-04-07T01:58:13.924Z,96193.00
2024-04-07T01:59:13.912Z,96196.00
2024-04-07T02:00:13.926Z,96190.00
2024-04-07T02:01:13.923Z,96191.00
2024-04-07T02:02:13.932Z,96188.00
2024-04-07T02:03:13.935Z,96187.00
2024-04-07T02:04:13.924Z,96188.00
2024-04-07T02:05:13.920Z,96189.00
2024-04-07T02:06:13.921Z,96191.00
2024-04-07T02:07:13.954Z,96193.00
2024-04-07T02:08:13.958Z,96193.00
2024-04-07T02:09:14.013Z,96194.00
2024-04-07T02:10:14.090Z,96193.00
2024-04-07T02:11:14.160Z,96193.00
2024-04-07T02:12:14.245Z,96191.00
2024-04-07T02:13:14.314Z,96190.00
2024-04-07T02:14:14.386Z,96188.00
2024-04-07T02:15:14.431Z,96186.00
2024-04-07T02:16:14.503Z,96186.00
2024-04-07T02:17:14.584Z,96184.00
2024-04-07T02:18:14.618Z,96186.00
2024-04-07T02:19:14.700Z,96183.00
2024-04-07T02:20:14.739Z,96184.00
2024-04-07T02:21:14.807Z,96182.00
2024-04-07T02:22:14.872Z,96184.00
2024-04-07T02:23:14.929Z,96184.00
2024-04-07T02:24:14.998Z,96182.00
2024-04-07T02:25:15.078Z,96181.00
2024-04-07T02:26:15.132Z,96179.00
2024-04-07T02:27:15.222Z,96181.00
2024-04-07T02:28:15.282Z,96182.00
2024-04-07T02:29:15.339Z,96181.00
2024-04-07T02:30:15.413Z,96183.00
2024-04-07T02:31:15.490Z,96184.00
2024-04-07T02:32:15.562Z,96185.00
2024-04-07T02:33:15.613Z,96184.00
2024-04-07T02:34:15.678Z,96184.00
2024-04-07T02:35:15.733Z,96182.00
2024-04-07T02:36:16.552Z,96186.00
2024-04-07T02:37:15.838Z,96187.00
2024-04-07T02:38:15.912Z,96187.00
2024-04-07T02:39:15.959Z,96188.00
2024-04-07T02:40:16.027Z,96186.00
2024-04-07T02:41:16.071Z,96182.00
2024-04-07T02:42:16.143Z,96182.00
2024-04-07T02:43:16.215Z,96183.00
2024-04-07T02:44:16.277Z,96186.00
2024-04-07T02:45:16.332Z,96186.00
2024-04-07T02:46:16.411Z,96186.00
2024-04-07T02:47:16.482Z,96188.00
2024-04-07T02:48:16.567Z,96192.00
2024-04-07T02:49:16.622Z,96196.00
2024-04-07T02:50:16.704Z,96194.00
2024-04-07T02:51:16.753Z,96195.00
2024-04-07T02:52:16.820Z,96191.00
2024-04-07T02:53:16.860Z,96191.00
2024-04-07T02:54:16.938Z,96194.00
2024-04-07T02:55:16.987Z,96197.00
2024-04-07T02:56:17.056Z,96200.00
2024-04-07T02:57:17.090Z,96196.00
2024-04-07T02:58:17.167Z,96194.00
2024-04-07T02:59:17.213Z,96194.00
2024-04-07T03:00:17.294Z,96193.00
2024-04-07T03:01:18.367Z,96192.00
2024-04-07T03:02:17.451Z,96193.00
2024-04-07T03:03:17.500Z,96191.00
2024-04-07T03:04:17.574Z,96192.00
2024-04-07T03:05:17.652Z,96187.00
2024-04-07T03:06:17.695Z,96190.00
2024-04-07T03:07:17.767Z,96191.00
2024-04-07T03:08:17.828Z,96192.00
2024-04-07T03:09:17.889Z,96194.00
2024-04-07T03:10:17.963Z,96193.00
2024-04-07T03:11:18.026Z,96191.00
2024-04-07T03:12:18.089Z,96192.00
2024-04-07T03:13:18.171Z,96196.00
2024-04-07T03:14:18.231Z,96197.00
2024-04-07T03:15:18.330Z,96197.00
2024-04-07T03:16:18.385Z,96195.00
2024-04-07T03:17:18.456Z,96198.00
2024-04-07T03:18:18.523Z,96194.00
2024-04-07T03:19:18.618Z,96193.00
2024-04-07T03:20:18.678Z,96192.00
2024-04-07T03:21:18.733Z,96195.00
2024-04-07T03:22:18.823Z,96195.00
2024-04-07T03:23:18.883Z,96196.00
2024-04-07T03:24:18.956Z,96201.00
2024-04-07T03:25:18.984Z,96203.00
2024-04-07T03:26:19.066Z,96208.00
2024-04-07T03:27:19.136Z,96213.00
2024-04-07T03:28:19.186Z,96212.00
2024-04-07T03:29:19.255Z,96210.00
2024-04-07T03:30:19.308Z,96208.00
2024-04-07T03:31:19.368Z,96205.00
2024-04-07T03:32:19.459Z,96202.00
2024-04-07T03:33:19.537Z,96205.00
2024-04-07T03:34:19.571Z,96208.00
2024-04-07T03:35:19.635Z,96210.00
2024-04-07T03:36:19.681Z,96209.00
2024-04-07T03:37:19.822Z,96209.00
2024-04-07T03:38:19.846Z,96210.00
2024-04-07T03:39:19.892Z,96213.00
2024-04-07T03:40:19.991Z,96215.00
2024-04-07T03:41:20.033Z,96215.00
2024-04-07T03:42:20.082Z,96216.00
2024-04-07T03:43:20.170Z,96218.00
2024-04-07T03:44:20.270Z,96220.00
2024-04-07T03:45:20.287Z,96216.00
2024-04-07T03:46:20.407Z,96215.00
2024-04-07T03:47:20.417Z,96213.00
2024-04-07T03:48:20.489Z,96211.00
2024-04-07T03:49:20.539Z,96213.00
2024-04-07T03:50:20.600Z,96210.00
2024-04-07T03:51:20.678Z,96210.00
2024-04-07T03:52:20.758Z,96211.00
2024-04-07T03:53:20.803Z,96209.00
2024-04-07T03:54:20.880Z,96207.00
2024-04-07T03:55:20.943Z,96204.00
2024-04-07T03:56:21.016Z,96204.00
2024-04-07T03:57:21.069Z,96206.00
2024-04-07T03:58:21.123Z,96207.00
2024-04-07T03:59:21.261Z,96207.00
2024-04-07T04:00:21.243Z,96206.00
2024-04-07T04:01:21.347Z,96203.00
2024-04-07T04:02:21.389Z,96206.00
2024-04-07T04:03:23.785Z,96207.00
2024-04-07T04:04:21.454Z,96207.00
2024-04-07T04:05:21.472Z,96211.00
2024-04-07T04:06:21.485Z,96211.00
2024-04-07T04:07:21.499Z,96208.00
2024-04-07T04:08:21.465Z,96212.00
2024-04-07T04:09:21.474Z,96212.00
2024-04-07T04:10:21.473Z,96213.00
2024-04-07T04:11:21.477Z,96214.00
2024-04-07T04:12:21.465Z,96214.00
2024-04-07T04:13:21.469Z,96217.00
2024-04-07T04:14:21.478Z,96214.00
2024-04-07T04:15:21.499Z,96217.00
2024-04-07T04:16:21.478Z,96221.00
2024-04-07T04:17:21.511Z,96222.00
2024-04-07T04:18:21.483Z,96224.00
2024-04-07T04:19:21.488Z,96222.00
2024-04-07T04:20:21.482Z,96221.00
2024-04-07T04:21:21.484Z,96221.00
2024-04-07T04:22:21.489Z,96222.00
2024-04-07T04:23:21.490Z,96222.00
2024-04-07T04:24:21.486Z,96224.00
2024-04-07T04:25:21.498Z,96229.00
2024-04-07T04:26:21.511Z,96230.00
2024-04-07T04:27:21.498Z,96232.00
2024-04-07T04:28:21.492Z,96232.00
2024-04-07T04:29:21.538Z,96233.00
2024-04-07T04:30:21.612Z,96236.00
2024-04-07T04:31:21.681Z,96234.00
2024-04-07T04:32:21.755Z,96236.00
2024-04-07T04:33:21.806Z,96241.00
2024-04-07T04:34:22.597Z,96240.00
2024-04-07T04:35:21.948Z,96239.00
2024-04-07T04:36:22.018Z,96236.00
2024-04-07T04:37:22.093Z,96238.00
2024-04-07T04:38:22.152Z,96241.00
2024-04-07T04:39:22.212Z,96243.00
2024-04-07T04:40:22.286Z,96246.00
2024-04-07T04:41:22.356Z,96245.00
2024-04-07T04:42:38.014Z,96248.00
2024-04-07T04:43:29.932Z,96247.00
2024-04-07T04:44:29.931Z,96249.00
2024-04-07T04:45:29.933Z,96250.00
2024-04-07T04:46:29.949Z,96252.00
2024-04-07T04:47:29.958Z,96252.00
2024-04-07T04:48:29.972Z,96257.00
2024-04-07T04:49:30.028Z,96257.00
2024-04-07T04:50:30.115Z,96259.00
2024-04-07T04:51:30.182Z,96260.00
2024-04-07T04:52:40.288Z,96258.00
2024-04-07T04:53:30.256Z,96262.00
2024-04-07T04:54:30.264Z,96263.00
2024-04-07T04:55:30.273Z,96262.00
2024-04-07T04:56:30.268Z,96264.00
2024-04-07T04:57:30.263Z,96264.00
2024-04-07T04:58:30.262Z,96266.00
2024-04-07T04:59:30.270Z,96266.00
2024-04-07T05:00:30.277Z,96267.00
2024-04-07T05:01:30.282Z,96261.00
2024-04-07T05:02:30.273Z,96261.00
2024-04-07T05:03:30.259Z,96262.00
2024-04-07T05:04:30.263Z,96263.00
2024-04-07T05:05:30.274Z,96266.00
2024-04-07T05:06:30.279Z,96265.00
2024-04-07T05:07:30.285Z,96264.00
2024-04-07T05:08:30.260Z,96264.00
2024-04-07T05:09:30.259Z,96272.00
2024-04-07T05:10:30.266Z,96274.00
2024-04-07T05:11:30.270Z,96274.00
2024-04-07T05:12:35.306Z,96272.00
2024-04-07T05:13:30.304Z,96272.00
2024-04-07T05:14:30.307Z,96270.00
2024-04-07T05:15:30.275Z,96269.00
2024-04-07T05:16:30.310Z,96272.00
2024-04-07T05:17:35.347Z,96273.00
2024-04-07T05:18:30.295Z,96271.00
2024-04-07T05:19:30.297Z,96270.00
2024-04-07T05:20:30.294Z,96266.00
2024-04-07T05:21:30.290Z,96267.00
2024-04-07T05:22:35.314Z,96270.00
2024-04-07T05:23:30.289Z,96267.00
2024-04-07T05:24:30.294Z,96265.00
2024-04-07T05:25:30.297Z,96263.00
2024-04-07T05:26:30.307Z,96265.00
2024-04-07T05:27:35.327Z,96264.00
2024-04-07T05:28:30.326Z,96264.00
2024-04-07T05:29:30.291Z,96264.00
2024-04-07T05:30:30.300Z,96266.00
2024-04-07T05:31:30.303Z,96265.00
2024-04-07T05:32:30.316Z,96268.00
2024-04-07T05:33:30.376Z,96271.00
2024-04-07T05:34:30.430Z,96272.00
2024-04-07T05:35:30.507Z,96276.00
2024-04-07T05:36:30.586Z,96280.00
2024-04-07T05:37:30.656Z,96280.00
2024-04-07T05:38:30.718Z,96282.00
2024-04-07T05:39:30.809Z,96282.00
2024-04-07T05:40:30.855Z,96280.00
2024-04-07T05:41:30.932Z,96281.00
2024-04-07T05:42:31.002Z,96281.00
2024-04-07T05:43:31.064Z,96284.00
2024-04-07T05:44:31.131Z,96285.00
2024-04-07T05:45:31.195Z,96283.00
2024-04-07T05:46:31.260Z,96285.00
2024-04-07T05:47:31.330Z,96286.00
2024-04-07T05:48:31.379Z,96290.00
2024-04-07T05:49:31.446Z,96293.00
2024-04-07T05:50:31.511Z,96293.00
2024-04-07T05:51:31.588Z,96291.00
2024-04-07T05:52:36.684Z,96290.00
2024-04-07T05:53:31.670Z,96290.00
2024-04-07T05:54:31.673Z,96289.00
2024-04-07T05:55:31.667Z,96291.00
2024-04-07T05:56:31.662Z,96291.00
2024-04-07T05:57:31.660Z,96292.00
2024-04-07T05:58:31.808Z,96292.00
2024-04-07T05:59:31.779Z,96294.00
2024-04-07T06:00:31.799Z,96297.00
2024-04-07T06:01:31.856Z,96301.00
2024-04-07T06:02:31.901Z,96299.00
2024-04-07T06:03:31.984Z,96299.00
2024-04-07T06:04:32.018Z,96297.00
2024-04-07T06:05:32.095Z,96296.00
2024-04-07T06:06:32.163Z,96297.00
2024-04-07T06:07:32.242Z,96296.00
2024-04-07T06:08:32.316Z,96293.00
2024-04-07T06:09:32.387Z,96295.00
2024-04-07T06:10:32.457Z,96297.00
2024-04-07T06:11:32.528Z,96297.00
2024-04-07T06:12:32.581Z,96300.00
2024-04-07T06:13:32.628Z,96303.00
2024-04-07T06:14:32.685Z,96302.00
2024-04-07T06:15:32.739Z,96304.00
2024-04-07T06:16:32.805Z,96302.00
2024-04-07T06:17:32.862Z,96302.00
2024-04-07T06:18:32.927Z,96303.00
2024-04-07T06:19:32.987Z,96302.00
2024-04-07T06:20:33.049Z,96305.00
2024-04-07T06:21:33.092Z,96303.00
2024-04-07T06:22:33.158Z,96304.00
2024-04-07T06:23:33.231Z,96302.00
2024-04-07T06:24:33.279Z,96299.00
2024-04-07T06:25:33.322Z,96299.00
2024-04-07T06:26:33.392Z,96300.00
2024-04-07T06:27:33.457Z,96302.00
2024-04-07T06:28:33.506Z,96302.00
2024-04-07T06:29:33.554Z,96299.00
2024-04-07T06:30:33.625Z,96302.00
2024-04-07T06:31:34.313Z,96306.00
2024-04-07T06:32:33.788Z,96309.00
2024-04-07T06:33:33.788Z,96306.00
2024-04-07T06:34:33.855Z,96306.00
2024-04-07T06:35:33.916Z,96305.00
2024-04-07T06:36:35.777Z,96305.00
2024-04-07T06:37:33.963Z,96307.00
2024-04-07T06:38:33.960Z,96306.00
2024-04-07T06:39:33.951Z,96307.00
2024-04-07T06:40:33.955Z,96308.00
2024-04-07T06:41:33.962Z,96307.00
2024-04-07T06:42:39.006Z,96306.00
2024-04-07T06:43:33.968Z,96305.00
2024-04-07T06:44:33.960Z,96302.00
2024-04-07T06:45:33.960Z,96303.00
2024-04-07T06:46:33.967Z,96305.00
2024-04-07T06:47:33.977Z,96301.00
2024-04-07T06:48:33.981Z,96299.00
2024-04-07T06:49:34.022Z,96304.00
2024-04-07T06:50:34.081Z,96300.00
2024-04-07T06:51:34.147Z,96300.00
2024-04-07T06:52:34.182Z,96301.00
2024-04-07T06:53:34.220Z,96300.00
2024-04-07T06:54:34.247Z,96300.00
2024-04-07T06:55:34.311Z,96301.00
2024-04-07T06:56:34.374Z,96301.00
2024-04-07T06:57:34.410Z,96302.00
2024-04-07T06:58:34.463Z,96303.00
2024-04-07T06:59:34.532Z,96305.00
2024-04-07T07:00:34.596Z,96307.00
2024-04-07T07:01:34.602Z,96305.00
2024-04-07T07:02:34.695Z,96306.00
2024-04-07T07:03:34.687Z,96304.00
2024-04-07T07:04:34.731Z,96305.00
2024-04-07T07:05:34.779Z,96305.00
2024-04-07T07:06:34.845Z,96305.00
2024-04-07T07:07:34.924Z,96305.00
2024-04-07T07:08:34.930Z,96304.00
2024-04-07T07:09:34.973Z,96304.00
2024-04-07T07:10:35.014Z,96303.00
2024-04-07T07:11:35.072Z,96305.00
2024-04-07T07:12:35.129Z,96304.00
2024-04-07T07:13:35.162Z,96305.00
2024-04-07T07:14:35.199Z,96303.00
2024-04-07T07:15:35.253Z,96301.00
2024-04-07T07:16:40.047Z,96301.00
2024-04-07T07:17:36.279Z,96301.00
2024-04-07T07:18:35.282Z,96298.00
2024-04-07T07:19:35.284Z,96299.00
2024-04-07T07:20:35.292Z,96299.00
2024-04-07T07:21:35.283Z,96300.00
2024-04-07T07:22:35.289Z,96300.00
2024-04-07T07:23:35.294Z,96301.00
2024-04-07T07:24:35.299Z,96298.00
2024-04-07T07:25:35.317Z,96298.00
2024-04-07T07:26:35.313Z,96297.00
2024-04-07T07:27:35.317Z,96299.00
2024-04-07T07:28:35.300Z,96302.00
2024-04-07T07:29:35.302Z,96306.00
2024-04-07T07:30:35.360Z,96303.00
2024-04-07T07:31:35.382Z,96302.00
2024-04-07T07:32:35.419Z,96303.00
2024-04-07T07:33:35.462Z,96302.00
2024-04-07T07:34:35.504Z,96303.00
2024-04-07T07:35:35.550Z,96306.00
2024-04-07T07:36:35.596Z,96307.00
2024-04-07T07:37:35.654Z,96307.00
2024-04-07T07:38:35.701Z,96307.00
2024-04-07T07:39:35.746Z,96308.00
2024-04-07T07:40:35.781Z,96307.00
2024-04-07T07:41:35.820Z,96309.00
2024-04-07T07:42:35.864Z,96310.00
2024-04-07T07:43:35.898Z,96311.00
2024-04-07T07:44:35.939Z,96310.00
2024-04-07T07:45:35.957Z,96312.00
2024-04-07T07:46:35.970Z,96309.00
2024-04-07T07:47:36.002Z,96310.00
2024-04-07T07:48:36.032Z,96310.00
2024-04-07T07:49:36.053Z,96310.00
2024-04-07T07:50:38.324Z,96309.00
2024-04-07T07:51:36.092Z,96310.00
2024-04-07T07:52:36.095Z,96308.00
2024-04-07T07:53:36.103Z,96308.00
2024-04-07T07:54:36.085Z,96310.00
2024-04-07T07:55:36.097Z,96313.00
2024-04-07T07:56:36.096Z,96315.00
2024-04-07T07:57:36.098Z,96311.00
2024-04-07T07:58:36.183Z,96312.00
2024-04-07T07:59:36.108Z,96311.00
2024-04-07T08:00:36.109Z,96312.00
2024-04-07T08:01:39.087Z,96308.00
2024-04-07T08:02:36.120Z,96310.00
2024-04-07T08:03:36.132Z,96308.00
2024-04-07T08:04:36.149Z,96307.00
2024-04-07T08:05:36.122Z,96304.00
2024-04-07T08:06:36.127Z,96303.00
2024-04-07T08:07:36.131Z,96304.00
2024-04-07T08:08:36.112Z,96307.00
2024-04-07T08:09:36.116Z,96306.00
2024-04-07T08:10:36.111Z,96308.00
2024-04-07T08:11:36.121Z,96308.00
2024-04-07T08:12:38.501Z,96308.00
2024-04-07T08:13:36.284Z,96307.00
2024-04-07T08:14:36.318Z,96308.00
2024-04-07T08:15:36.359Z,96309.00
2024-04-07T08:16:36.357Z,96309.00
2024-04-07T08:17:36.401Z,96304.00
2024-04-07T08:18:36.513Z,96304.00
2024-04-07T08:19:36.528Z,96302.00
2024-04-07T08:20:36.548Z,96301.00
2024-04-07T08:21:36.598Z,96301.00
2024-04-07T08:22:36.618Z,96300.00
2024-04-07T08:23:36.653Z,96298.00
2024-04-07T08:24:36.678Z,96299.00
2024-04-07T08:25:36.728Z,96299.00
2024-04-07T08:26:36.779Z,96296.00
2024-04-07T08:27:36.796Z,96295.00
2024-04-07T08:28:36.783Z,96297.00
2024-04-07T08:29:36.823Z,96294.00
2024-04-07T08:30:39.397Z,96295.00
2024-04-07T08:31:37.014Z,96295.00
2024-04-07T08:32:37.122Z,96294.00
2024-04-07T08:33:37.079Z,96294.00
2024-04-07T08:34:37.089Z,96294.00
2024-04-07T08:35:37.140Z,96294.00
2024-04-07T08:36:37.165Z,96295.00
2024-04-07T08:37:37.191Z,96296.00
2024-04-07T08:38:37.224Z,96297.00
2024-04-07T08:39:37.266Z,96296.00
2024-04-07T08:40:37.297Z,96294.00
2024-04-07T08:41:37.332Z,96293.00
2024-04-07T08:42:37.335Z,96291.00
2024-04-07T08:43:37.357Z,96291.00
2024-04-07T08:44:37.392Z,96293.00
2024-04-07T08:45:37.420Z,96291.00
2024-04-07T08:46:37.434Z,96291.00
2024-04-07T08:47:37.459Z,96290.00
2024-04-07T08:48:37.460Z,96292.00
2024-04-07T08:49:37.488Z,96292.00
2024-04-07T08:50:37.607Z,96290.00
2024-04-07T08:51:37.716Z,96291.00
2024-04-07T08:52:37.723Z,96286.00
2024-04-07T08:53:37.735Z,96288.00
2024-04-07T08:54:37.769Z,96286.00
2024-04-07T08:55:37.795Z,96287.00
2024-04-07T08:56:37.801Z,96283.00
2024-04-07T08:57:37.824Z,96282.00
2024-04-07T08:58:37.863Z,96280.00
2024-04-07T08:59:37.909Z,96280.00
2024-04-07T09:00:37.919Z,96277.00
2024-04-07T09:01:37.944Z,96280.00
2024-04-07T09:02:37.955Z,96281.00
2024-04-07T09:03:38.035Z,96279.00
2024-04-07T09:04:38.005Z,96278.00
2024-04-07T09:05:38.051Z,96280.00
2024-04-07T09:06:38.157Z,96279.00
2024-04-07T09:07:38.272Z,96280.00
2024-04-07T09:08:38.392Z,96279.00
2024-04-07T09:09:38.511Z,96280.00
2024-04-07T09:10:38.546Z,96278.00
2024-04-07T09:11:38.578Z,96278.00
2024-04-07T09:12:38.538Z,96277.00
2024-04-07T09:13:38.563Z,96274.00
2024-04-07T09:14:38.599Z,96273.00
2024-04-07T09:15:38.617Z,96273.00
2024-04-07T09:16:46.189Z,96272.00
2024-04-07T09:17:46.185Z,96272.00
2024-04-07T09:18:46.186Z,96272.00
2024-04-07T09:19:46.193Z,96272.00
2024-04-07T09:20:46.183Z,96271.00
2024-04-07T09:21:46.190Z,96268.00
2024-04-07T09:22:46.199Z,96267.00
2024-04-07T09:23:46.199Z,96266.00
2024-04-07T09:24:46.192Z,96266.00
2024-04-07T09:25:49.131Z,96265.00
2024-04-07T09:26:46.204Z,96271.00
2024-04-07T09:27:46.212Z,96270.00
2024-04-07T09:28:46.214Z,96272.00
2024-04-07T09:29:46.207Z,96271.00
2024-04-07T09:30:46.199Z,96273.00
2024-04-07T09:31:46.214Z,96267.00
2024-04-07T09:32:46.211Z,96266.00
2024-04-07T09:33:46.218Z,96267.00
2024-04-07T09:34:46.245Z,96266.00
2024-04-07T09:35:46.220Z,96265.00
2024-04-07T09:36:46.220Z,96263.00
2024-04-07T09:37:46.215Z,96262.00
2024-04-07T09:38:46.220Z,96260.00
2024-04-07T09:39:46.225Z,96261.00
2024-04-07T09:40:46.237Z,96258.00
2024-04-07T09:41:46.234Z,96255.00
2024-04-07T09:42:46.253Z,96250.00
2024-04-07T09:43:46.249Z,96245.00
2024-04-07T09:44:46.236Z,96245.00
2024-04-07T09:45:46.243Z,96242.00
2024-04-07T09:46:46.237Z,96241.00
2024-04-07T09:47:46.245Z,96241.00
2024-04-07T09:48:46.246Z,96241.00
2024-04-07T09:49:46.234Z,96244.00
2024-04-07T09:50:46.239Z,96242.00
2024-04-07T09:51:46.233Z,96244.00
2024-04-07T09:52:46.234Z,96246.00
2024-04-07T09:53:46.234Z,96245.00
2024-04-07T09:54:46.250Z,96245.00
2024-04-07T09:55:46.239Z,96248.00
2024-04-07T09:56:46.251Z,96249.00
2024-04-07T09:57:46.249Z,96252.00
2024-04-07T09:58:46.253Z,96255.00
2024-04-07T09:59:46.252Z,96256.00
2024-04-07T10:00:46.258Z,96255.00
2024-04-07T10:01:46.271Z,96254.00
2024-04-07T10:02:46.250Z,96256.00
2024-04-07T10:03:46.257Z,96255.00
2024-04-07T10:04:46.263Z,96254.00
2024-04-07T10:05:46.257Z,96257.00
2024-04-07T10:06:46.261Z,96256.00
2024-04-07T10:07:46.255Z,96253.00
2024-04-07T10:08:46.261Z,96252.00
2024-04-07T10:09:46.272Z,96249.00
2024-04-07T10:10:55.281Z,96245.00
2024-04-07T10:11:47.270Z,96244.00
2024-04-07T10:12:46.259Z,96242.00
2024-04-07T10:13:46.265Z,96241.00
2024-04-07T10:14:46.269Z,96239.00
2024-04-07T10:15:46.276Z,96240.00
2024-04-07T10:16:46.282Z,96236.00
2024-04-07T10:17:46.270Z,96235.00
2024-04-07T10:18:46.292Z,96235.00
2024-04-07T10:19:46.276Z,96232.00
2024-04-07T10:20:46.286Z,96231.00
2024-04-07T10:21:46.292Z,96230.00
2024-04-07T10:22:46.285Z,96231.00
2024-04-07T10:23:48.924Z,96231.00
2024-04-07T10:24:46.289Z,96230.00
2024-04-07T10:25:46.298Z,96234.00
2024-04-07T10:26:46.278Z,96231.00
2024-04-07T10:27:46.283Z,96230.00
2024-04-07T10:28:46.306Z,96230.00
2024-04-07T10:29:46.295Z,96229.00
2024-04-07T10:30:46.301Z,96226.00
2024-04-07T10:31:46.306Z,96228.00
2024-04-07T10:32:46.289Z,96226.00
2024-04-07T10:33:46.298Z,96223.00
2024-04-07T10:34:46.303Z,96221.00
2024-04-07T10:35:46.304Z,96223.00
2024-04-07T10:36:46.305Z,96222.00
2024-04-07T10:37:46.306Z,96222.00
2024-04-07T10:38:46.319Z,96223.00
2024-04-07T10:39:46.302Z,96222.00
2024-04-07T10:40:46.315Z,96221.00
2024-04-07T10:41:46.321Z,96221.00
2024-04-07T10:42:46.332Z,96221.00
2024-04-07T10:43:46.320Z,96223.00
2024-04-07T10:44:46.331Z,96220.00
2024-04-07T10:45:46.321Z,96215.00
2024-04-07T10:46:46.339Z,96213.00
2024-04-07T10:47:46.335Z,96212.00
2024-04-07T10:48:46.343Z,96211.00
2024-04-07T10:49:46.323Z,96212.00
2024-04-07T10:50:46.339Z,96213.00
2024-04-07T10:51:46.339Z,96214.00
2024-04-07T10:52:46.361Z,96213.00
2024-04-07T10:53:46.347Z,96211.00
2024-04-07T10:54:46.356Z,96208.00
2024-04-07T10:55:46.335Z,96206.00
2024-04-07T10:56:46.340Z,96207.00
2024-04-07T10:57:46.346Z,96204.00
2024-04-07T10:58:46.347Z,96204.00
2024-04-07T10:59:46.342Z,96204.00
2024-04-07T11:00:46.348Z,96203.00
2024-04-07T11:01:46.334Z,96203.00
2024-04-07T11:02:46.340Z,96202.00
2024-04-07T11:03:46.350Z,96199.00
2024-04-07T11:04:46.345Z,96198.00
2024-04-07T11:05:46.357Z,96197.00
2024-04-07T11:06:47.084Z,96194.00
2024-04-07T11:07:46.340Z,96193.00
2024-04-07T11:08:46.347Z,96191.00
2024-04-07T11:09:46.350Z,96189.00
2024-04-07T11:10:46.408Z,96186.00
2024-04-07T11:11:46.363Z,96183.00
2024-04-07T11:12:46.347Z,96183.00
2024-04-07T11:13:46.346Z,96181.00
2024-04-07T11:14:46.348Z,96179.00
2024-04-07T11:15:46.361Z,96177.00
2024-04-07T11:16:46.363Z,96179.00
2024-04-07T11:17:46.373Z,96177.00
2024-04-07T11:18:46.362Z,96175.00
2024-04-07T11:19:46.370Z,96174.00
2024-04-07T11:20:46.360Z,96172.00
2024-04-07T11:21:46.364Z,96173.00
2024-04-07T11:22:46.370Z,96171.00
2024-04-07T11:23:46.761Z,96173.00
2024-04-07T11:24:46.384Z,96171.00
2024-04-07T11:25:46.379Z,96171.00
2024-04-07T11:26:46.387Z,96169.00
2024-04-07T11:27:46.364Z,96172.00
2024-04-07T11:28:46.375Z,96170.00
2024-04-07T11:29:46.380Z,96169.00
2024-04-07T11:30:46.400Z,96170.00
2024-04-07T11:31:48.062Z,96168.00
2024-04-07T11:32:47.388Z,96164.00
2024-04-07T11:33:46.385Z,96159.00
2024-04-07T11:34:47.846Z,96158.00
2024-04-07T11:35:46.400Z,96155.00
2024-04-07T11:36:46.390Z,96156.00
2024-04-07T11:37:46.392Z,96155.00
2024-04-07T11:38:46.407Z,96155.00
2024-04-07T11:39:55.715Z,96157.00
2024-04-07T11:40:47.407Z,96153.00
2024-04-07T11:41:46.410Z,96153.00
2024-04-07T11:42:46.425Z,96153.00
2024-04-07T11:43:46.404Z,96152.00
2024-04-07T11:44:46.411Z,96148.00